VB1031 / XA-VIF 7700 Squawk Report (14th of January, 2020)

Aircraft A20N Reg No. XA-VIF Age 1 years old
Model A320 Jet engines 2 First flight 15-06-18
Registered 29-06-18 Rollout N/A Delivered 30-06-18
Construction No. 8335 Line No. N/A Series 271N(SL)
ADSHEX 0D0B0D Airline name VivaAerob├║s Owner N/A
Airfield based Monterrey-International~Nuevo Leon~XA First tracked 2018-07-05 23:23:00

Flight history for XA-VIF

Route Flight No Date Playback
Licenciado Benito Juarez (MEX) - General Mariano Escobedo (MTY) VB1144 2020-01-29 06:46:00
General Mariano Escobedo (MTY) - Licenciado Benito Juarez (MEX) VB1143 2020-01-29 05:43:00
Licenciado Benito Juarez (MEX) - General Mariano Escobedo (MTY) VB1138 2020-01-29 03:48:00
General Mariano Escobedo (MTY) - Licenciado Benito Juarez (MEX) VB1137 2020-01-29 00:03:00
Licenciado Gustavo Diaz Ordaz Intl (PVR) - General Mariano Escobedo (MTY) VB4345 2020-01-28 22:59:00
General Mariano Escobedo (MTY) - Licenciado Gustavo Diaz Ordaz Intl (PVR) VB4344 2020-01-28 20:27:00
C P A Carlos Rovirosa Intl (VSA) - General Mariano Escobedo (MTY) VB4393 2020-01-28 17:09:00
General Mariano Escobedo (MTY) - C P A Carlos Rovirosa Intl (VSA) VB4392 2020-01-28 15:24:00
Culiacan Intl (CUL) - General Mariano Escobedo (MTY) VB4279 2020-01-28 12:48:00
General Mariano Escobedo (MTY) - Culiacan Intl (CUL) VB4278 2020-01-28 05:43:00
Xoxocotlan Intl (OAX) - General Mariano Escobedo (MTY) VB4075 2020-01-28 02:18:00
General Mariano Escobedo (MTY) - Xoxocotlan Intl (OAX) VB4074 2020-01-27 23:15:00
Licenciado Adolfo Lopez Mateos Intl (TLC) - General Mariano Escobedo (MTY) VB4035 2020-01-27 21:08:00
Cancun Intl (CUN) - Licenciado Adolfo Lopez Mateos Intl (TLC) VB2016 2020-01-27 19:03:00
Licenciado Adolfo Lopez Mateos Intl (TLC) - Cancun Intl (CUN) VB2015 2020-01-27 16:11:00
General Mariano Escobedo (MTY) - Licenciado Adolfo Lopez Mateos Intl (TLC) VB4030 2020-01-27 14:31:00
General Ignacio P Garcia Intl (HMO) - General Mariano Escobedo (MTY) VB4111 2020-01-27 12:07:00
General Mariano Escobedo (MTY) - General Ignacio P Garcia Intl (HMO) VB4118 2020-01-27 04:32:00
Hermanos Serdan Intl (PBC) - General Mariano Escobedo (MTY) VB4007 2020-01-27 01:52:00
General Mariano Escobedo (MTY) - Hermanos Serdan Intl (PBC) VB4006 2020-01-26 23:49:00
Time Lat Lon Altitude Heading Speed Vertical Rate
2020-01-14 21:36:54 GMT 20.937881 -89.660942 75 105 133 -768
2020-01-14 21:36:43 GMT 20.939529 -89.667366 200 105 129 -704
2020-01-14 21:36:32 GMT 20.941223 -89.674088 325 105 129 -640
2020-01-14 21:36:23 GMT 20.942780 -89.680069 425 105 131 -768
2020-01-14 21:36:12 GMT 20.944473 -89.686691 550 105 132 -704
2020-01-14 21:36:02 GMT 20.946178 -89.693329 675 105 132 -640
2020-01-14 21:35:52 GMT 20.947809 -89.699577 775 105 129 -640
2020-01-14 21:35:41 GMT 20.949417 -89.706017 875 105 129 -576
2020-01-14 21:35:31 GMT 20.951065 -89.712440 1,000 105 131 -704
2020-01-14 21:35:20 GMT 20.952759 -89.719017 1,125 105 130 -704
2020-01-14 21:35:10 GMT 20.954418 -89.725395 1,225 104 131 -768
2020-01-14 21:35:00 GMT 20.956100 -89.731911 1,350 104 135 -704
2020-01-14 21:34:49 GMT 20.957865 -89.738976 1,500 105 137 -1088
2020-01-14 21:34:39 GMT 20.959633 -89.746017 1,600 105 144 -576
2020-01-14 21:34:28 GMT 20.961449 -89.753105 1,750 104 145 -640
2020-01-14 21:34:18 GMT 20.963196 -89.760361 1,875 104 153 -640
2020-01-14 21:34:08 GMT 20.965033 -89.767937 1,925 102 158 0
2020-01-14 21:33:57 GMT 20.966290 -89.776077 1,925 92 157 0
2020-01-14 21:33:47 GMT 20.966011 -89.784317 1,925 80 156 -192
2020-01-14 21:33:36 GMT 20.964195 -89.791862 1,925 63 158 -64
2020-01-14 21:33:26 GMT 20.960657 -89.799202 1,925 62 157 -64
2020-01-14 21:33:15 GMT 20.957026 -89.806389 1,925 60 159 64
2020-01-14 21:33:05 GMT 20.952278 -89.813133 1,925 33 166 -64
2020-01-14 21:32:55 GMT 20.944839 -89.816277 1,925 356 174 64
2020-01-14 21:32:44 GMT 20.936874 -89.814117 1,925 323 183 64
2020-01-14 21:32:34 GMT 20.931107 -89.807152 1,925 293 183 -256
2020-01-14 21:32:23 GMT 20.929003 -89.798004 1,925 270 181 0
2020-01-14 21:32:13 GMT 20.929420 -89.789062 1,925 266 181 64
2020-01-14 21:32:02 GMT 20.930119 -89.779228 1,925 266 185 -64
2020-01-14 21:31:52 GMT 20.930723 -89.770088 1,925 267 182 -64
2020-01-14 21:31:42 GMT 20.931290 -89.760704 1,925 267 185 -128
2020-01-14 21:31:32 GMT 20.931841 -89.751358 1,925 267 179 -64
2020-01-14 21:31:21 GMT 20.932434 -89.741524 1,925 267 177 -64
2020-01-14 21:31:11 GMT 20.932959 -89.732880 1,925 267 182 0
2020-01-14 21:31:00 GMT 20.933578 -89.723282 1,925 266 184 128
2020-01-14 21:30:50 GMT 20.934174 -89.714058 1,925 267 183 0
2020-01-14 21:30:40 GMT 20.934723 -89.704742 1,925 267 180 128
2020-01-14 21:30:29 GMT 20.935226 -89.695175 1,925 268 181 0
2020-01-14 21:30:19 GMT 20.935638 -89.686157 1,925 267 182 0
2020-01-14 21:30:08 GMT 20.936216 -89.676353 1,925 266 183 -64
2020-01-14 21:29:58 GMT 20.937056 -89.667511 1,925 262 180 0
2020-01-14 21:29:48 GMT 20.938614 -89.658493 1,925 251 179 -64
2020-01-14 21:29:37 GMT 20.942505 -89.650108 1,925 232 178 64
2020-01-14 21:29:27 GMT 20.947994 -89.642998 1,925 230 176 -64
2020-01-14 21:29:16 GMT 20.953537 -89.635979 1,925 230 177 0
2020-01-14 21:29:06 GMT 20.959028 -89.629059 1,925 231 174 -64
2020-01-14 21:28:56 GMT 20.964249 -89.622391 1,925 232 177 0
2020-01-14 21:28:45 GMT 20.969650 -89.614937 1,925 240 180 -64
2020-01-14 21:28:35 GMT 20.972761 -89.606438 1,925 266 178 192
2020-01-14 21:28:24 GMT 20.971710 -89.597328 1,925 297 178 0
2020-01-14 21:28:13 GMT 20.966057 -89.589760 1,925 328 175 0
2020-01-14 21:28:04 GMT 20.958664 -89.586784 1,925 1 170 -64
2020-01-14 21:27:53 GMT 20.950695 -89.588165 1,925 29 166 -64
2020-01-14 21:27:43 GMT 20.944336 -89.593651 1,925 55 163 128
2020-01-14 21:27:32 GMT 20.940966 -89.601143 1,925 78 159 192
2020-01-14 21:27:22 GMT 20.940125 -89.609100 1,925 86 161 0
2020-01-14 21:27:11 GMT 20.939663 -89.617477 1,925 86 159 192
2020-01-14 21:27:01 GMT 20.939198 -89.625816 1,925 87 165 -64
2020-01-14 21:26:51 GMT 20.938889 -89.633972 1,925 87 162 64
2020-01-14 21:26:40 GMT 20.938522 -89.642403 1,925 87 160 -64
2020-01-14 21:26:30 GMT 20.938171 -89.650536 1,925 88 156 64
2020-01-14 21:26:19 GMT 20.938797 -89.658691 1,925 102 155 -64
2020-01-14 21:26:09 GMT 20.940399 -89.666245 1,925 102 155 0
2020-01-14 21:25:59 GMT 20.942093 -89.674042 1,925 102 156 0
2020-01-14 21:25:48 GMT 20.943787 -89.682083 1,925 102 157 -64
2020-01-14 21:25:38 GMT 20.945435 -89.689934 1,925 102 158 64
2020-01-14 21:25:27 GMT 20.947174 -89.698074 1,925 102 158 64
2020-01-14 21:25:17 GMT 20.948879 -89.705963 1,925 103 159 0
2020-01-14 21:25:07 GMT 20.950653 -89.713913 1,925 103 158 -256
2020-01-14 21:24:57 GMT 20.952324 -89.721596 1,925 102 161 0
2020-01-14 21:24:46 GMT 20.954041 -89.729706 1,925 102 160 0
2020-01-14 21:24:35 GMT 20.955780 -89.737846 1,925 102 158 64
2020-01-14 21:24:25 GMT 20.957382 -89.745644 1,925 102 156 0
2020-01-14 21:24:15 GMT 20.959030 -89.753540 1,925 102 159 0
2020-01-14 21:24:04 GMT 20.960724 -89.761833 1,925 102 159 64
2020-01-14 21:23:54 GMT 20.962372 -89.769485 1,925 103 159 -64
2020-01-14 21:23:44 GMT 20.964243 -89.777527 1,925 106 160 -64
2020-01-14 21:23:33 GMT 20.967178 -89.785423 1,925 127 158 -64
2020-01-14 21:23:23 GMT 20.972855 -89.790962 1,925 153 160 0
2020-01-14 21:23:12 GMT 20.980536 -89.793457 1,925 177 163 64
2020-01-14 21:23:01 GMT 20.988869 -89.793259 1,925 184 169 0
2020-01-14 21:22:52 GMT 20.996475 -89.792831 1,925 183 172 64
2020-01-14 21:22:41 GMT 21.004623 -89.792389 1,925 184 169 64
2020-01-14 21:22:30 GMT 21.013308 -89.791908 1,925 183 168 -64
2020-01-14 21:22:20 GMT 21.021315 -89.791458 1,925 184 168 64
2020-01-14 21:22:10 GMT 21.028996 -89.791008 1,925 184 167 128
2020-01-14 21:21:59 GMT 21.037720 -89.790558 1,925 183 166 -128
2020-01-14 21:21:49 GMT 21.045319 -89.790215 1,925 183 163 320
2020-01-14 21:21:38 GMT 21.053204 -89.789833 1,925 183 164 0
2020-01-14 21:21:28 GMT 21.061111 -89.789413 1,925 184 164 0
2020-01-14 21:21:17 GMT 21.069263 -89.788971 1,925 183 163 0
2020-01-14 21:21:07 GMT 21.076813 -89.788567 1,925 183 164 -64
2020-01-14 21:20:57 GMT 21.084595 -89.788216 1,925 183 164 -128
2020-01-14 21:20:47 GMT 21.092541 -89.787804 1,950 183 167 64
2020-01-14 21:20:36 GMT 21.101011 -89.787346 1,925 184 188 -192
2020-01-14 21:20:25 GMT 21.110825 -89.786766 1,950 184 198 64
2020-01-14 21:20:16 GMT 21.119843 -89.786217 1,925 184 207 128
2020-01-14 21:20:05 GMT 21.130060 -89.785515 1,900 184 220 -128
2020-01-14 21:19:55 GMT 21.141037 -89.784866 1,925 183 229 -64
2020-01-14 21:19:42 GMT 21.154404 -89.784218 1,925 183 228 -64
2020-01-14 21:19:34 GMT 21.162880 -89.783836 1,950 183 223 0
2020-01-14 21:19:23 GMT 21.174683 -89.783218 2,000 184 225 -448
2020-01-14 21:19:13 GMT 21.185085 -89.782562 2,175 184 226 -1408
2020-01-14 21:19:02 GMT 21.196152 -89.782021 2,375 183 226 -1280
2020-01-14 21:18:52 GMT 21.207012 -89.781494 2,600 183 225 -1152
2020-01-14 21:18:42 GMT 21.217394 -89.780937 2,750 183 228 -768
2020-01-14 21:18:31 GMT 21.229111 -89.780769 2,900 173 231 -896
2020-01-14 21:18:20 GMT 21.240005 -89.783218 3,075 159 232 -960
2020-01-14 21:18:10 GMT 21.250118 -89.787445 3,200 158 236 -640
2020-01-14 21:17:59 GMT 21.261663 -89.792274 3,350 158 242 -960
2020-01-14 21:17:50 GMT 21.271254 -89.796242 3,500 158 250 -1280
2020-01-14 21:17:39 GMT 21.282892 -89.801125 3,825 158 253 -2240
2020-01-14 21:17:29 GMT 21.294342 -89.805840 4,225 158 253 -2176
2020-01-14 21:17:19 GMT 21.305841 -89.810638 4,575 158 255 -1856
2020-01-14 21:17:08 GMT 21.317154 -89.815369 4,875 158 259 -1984
2020-01-14 21:16:58 GMT 21.328903 -89.820221 5,225 161 260 -1856
2020-01-14 21:16:47 GMT 21.341314 -89.823555 5,525 174 267 -1856
2020-01-14 21:16:37 GMT 21.354488 -89.823967 5,850 187 273 -1664
2020-01-14 21:16:27 GMT 21.367264 -89.821625 6,100 199 284 -1536
2020-01-14 21:16:17 GMT 21.380035 -89.816078 6,475 212 288 -2560
2020-01-14 21:16:06 GMT 21.391499 -89.807129 6,975 225 287 -2944
2020-01-14 21:15:56 GMT 21.400295 -89.796295 7,425 238 288 -2560
2020-01-14 21:15:45 GMT 21.406954 -89.783272 7,825 251 290 -2176
2020-01-14 21:15:35 GMT 21.410770 -89.768425 8,200 263 293 -2304
2020-01-14 21:15:24 GMT 21.411142 -89.753319 8,575 277 294 -1984
2020-01-14 21:15:14 GMT 21.408302 -89.738365 8,850 290 300 -1216
2020-01-14 21:15:04 GMT 21.402346 -89.724174 9,025 304 311 -1024
2020-01-14 21:14:53 GMT 21.393034 -89.711510 9,250 318 319 -1344
2020-01-14 21:14:43 GMT 21.380630 -89.701370 9,525 332 327 -1984
2020-01-14 21:14:32 GMT 21.365290 -89.694466 10,000 346 330 -2688
2020-01-14 21:14:22 GMT 21.350300 -89.691368 10,425 353 334 -2496
2020-01-14 21:14:12 GMT 21.334099 -89.689232 10,900 354 336 -3072
2020-01-14 21:14:01 GMT 21.317619 -89.687141 11,450 354 337 -3136
2020-01-14 21:13:51 GMT 21.301987 -89.685089 11,975 353 338 -3008
2020-01-14 21:13:41 GMT 21.285645 -89.682892 12,525 353 337 -3584
2020-01-14 21:13:30 GMT 21.268570 -89.680496 13,150 353 337 -3392
2020-01-14 21:13:19 GMT 21.252819 -89.678246 13,650 353 339 -2432
2020-01-14 21:13:09 GMT 21.237167 -89.675903 13,975 352 348 -1664
2020-01-14 21:12:59 GMT 21.220139 -89.673309 14,350 352 355 -2496
2020-01-14 21:12:49 GMT 21.203339 -89.670708 14,825 352 357 -3136
2020-01-14 21:12:38 GMT 21.185898 -89.668114 15,400 353 358 -3200
2020-01-14 21:12:28 GMT 21.168793 -89.665627 15,900 353 362 -2816
2020-01-14 21:12:17 GMT 21.150467 -89.662971 16,400 353 366 -2624
2020-01-14 21:12:07 GMT 21.133692 -89.660492 16,900 352 367 -3328
2020-01-14 21:11:56 GMT 21.115173 -89.657623 17,525 352 367 -3328
2020-01-14 21:11:46 GMT 21.098785 -89.655128 18,075 352 368 -3456
2020-01-14 21:11:35 GMT 21.079971 -89.652229 18,675 352 370 -2944
2020-01-14 21:11:25 GMT 21.062885 -89.649658 19,125 352 375 -2688
2020-01-14 21:11:15 GMT 21.045181 -89.646942 19,650 352 376 -3520
2020-01-14 21:11:04 GMT 21.026249 -89.644096 20,325 353 375 -3648
2020-01-14 21:10:54 GMT 21.009064 -89.641571 20,950 352 374 -3584
2020-01-14 21:10:43 GMT 20.990776 -89.638603 21,525 351 376 -3008
2020-01-14 21:10:32 GMT 20.969873 -89.635605 22,025 355 385 -2752
2020-01-14 21:10:19 GMT 20.945984 -89.633034 22,675 355 386 -3136
2020-01-14 21:10:12 GMT 20.936264 -89.632057 23,675 355 387 -3328
2020-01-14 21:10:00 GMT 20.911926 -89.629555 23,675 355 390 -3072
2020-01-14 21:09:49 GMT 20.893156 -89.627716 24,200 355 393 -2944
2020-01-14 21:09:41 GMT 20.879974 -89.626419 24,550 355 396 -2688
2020-01-14 21:09:38 GMT 20.874350 -89.625870 24,675 355 398 -2560
2020-01-14 21:09:29 GMT 20.855759 -89.624207 25,150 357 402 -3136
2020-01-14 21:09:20 GMT 20.841064 -89.623367 25,600 359 403 -3648
2020-01-14 21:09:17 GMT 20.834360 -89.623169 25,825 0 403 -3584
2020-01-14 21:09:10 GMT 20.821047 -89.623070 26,250 0 404 -3584
2020-01-14 21:09:06 GMT 20.812683 -89.623131 26,525 0 404 -3712
2020-01-14 21:09:00 GMT 20.802383 -89.623077 26,850 356 406 -3648
2020-01-14 21:08:57 GMT 20.795471 -89.622543 27,100 354 405 -3712
2020-01-14 21:08:49 GMT 20.783020 -89.620529 27,500 347 407 -3776
2020-01-14 21:08:45 GMT 20.775473 -89.618523 27,775 343 407 -3904
2020-01-14 21:08:39 GMT 20.764439 -89.614479 28,200 337 407 -4160
2020-01-14 21:08:35 GMT 20.756653 -89.610771 28,500 333 407 -4160
2020-01-14 21:08:29 GMT 20.747406 -89.605377 28,875 327 407 -3968
2020-01-14 21:08:24 GMT 20.738277 -89.598846 29,250 323 409 -3456
2020-01-14 21:08:18 GMT 20.730688 -89.592461 29,525 318 413 -2944
2020-01-14 21:08:13 GMT 20.724499 -89.586517 29,725 315 415 -2624
2020-01-14 21:08:08 GMT 20.717377 -89.578598 29,950 311 420 -2304
2020-01-14 21:08:03 GMT 20.710440 -89.569786 30,125 307 425 -1984
2020-01-14 21:07:58 GMT 20.704742 -89.561378 30,300 303 427 -2176
2020-01-14 21:07:52 GMT 20.698381 -89.550560 30,500 299 430 -2048
2020-01-14 21:07:47 GMT 20.694193 -89.542122 30,650 296 433 -1856
2020-01-14 21:07:42 GMT 20.689682 -89.531807 30,800 292 436 -1664
2020-01-14 21:07:37 GMT 20.685883 -89.521606 30,950 289 438 -1600
2020-01-14 21:07:32 GMT 20.682220 -89.509438 31,100 285 444 -1664
2020-01-14 21:07:26 GMT 20.680040 -89.500473 31,250 283 446 -1792
2020-01-14 21:07:20 GMT 20.677433 -89.486237 31,450 279 448 -2048
2020-01-14 21:07:16 GMT 20.676315 -89.477562 31,600 276 450 -2240
2020-01-14 21:07:09 GMT 20.675262 -89.463188 31,875 273 450 -2688
2020-01-14 21:07:05 GMT 20.674988 -89.454315 32,075 272 449 -3520
2020-01-14 21:07:00 GMT 20.674576 -89.440628 32,500 272 444 -4416
2020-01-14 21:06:55 GMT 20.674301 -89.431015 32,825 272 441 -4288
2020-01-14 21:06:48 GMT 20.673843 -89.416695 33,275 272 437 -4032
2020-01-14 21:06:45 GMT 20.673616 -89.409485 33,500 272 434 -4032
2020-01-14 21:06:39 GMT 20.673197 -89.394302 34,000 272 429 -4224
2020-01-14 21:06:34 GMT 20.672974 -89.387024 34,225 272 427 -4160
2020-01-14 21:06:28 GMT 20.672499 -89.371780 34,725 272 422 -3712
2020-01-14 21:06:24 GMT 20.672287 -89.364609 34,900 272 421 -3392
2020-01-14 21:06:17 GMT 20.671875 -89.350288 35,250 272 419 -2816
2020-01-14 21:06:13 GMT 20.671692 -89.343666 35,400 272 419 -2624
2020-01-14 21:06:06 GMT 20.671188 -89.326355 35,725 272 418 -1984
2020-01-14 21:06:03 GMT 20.671097 -89.322235 35,775 272 418 -1664
2020-01-14 21:05:56 GMT 20.670589 -89.305862 35,925 272 419 -768
2020-01-14 21:05:53 GMT 20.670456 -89.300797 35,950 272 420 -448
2020-01-14 21:05:45 GMT 20.669985 -89.284142 35,975 272 421 -128
2020-01-14 21:05:42 GMT 20.669846 -89.278099 36,000 272 421 0
2020-01-14 21:05:35 GMT 20.669287 -89.257576 36,000 272 421 0
2020-01-14 21:05:24 GMT 20.668821 -89.242439 36,000 272 421 0
2020-01-14 21:05:21 GMT 20.668625 -89.235275 36,000 272 421 0
2020-01-14 21:05:11 GMT 20.667984 -89.214134 36,000 272 421 0
2020-01-14 21:05:03 GMT 20.667425 -89.195953 36,000 272 421 0
2020-01-14 21:05:00 GMT 20.667286 -89.192657 36,000 273 422 0
2020-01-14 21:04:50 GMT 20.666611 -89.171364 36,000 273 422 0
2020-01-14 21:04:40 GMT 20.665936 -89.149605 36,000 272 422 0
2020-01-14 21:04:29 GMT 20.665237 -89.127861 36,000 272 423 0
2020-01-14 21:04:19 GMT 20.664585 -89.106712 36,000 272 423 0
2020-01-14 21:04:08 GMT 20.663269 -89.061012 36,000 272 423 0
2020-01-14 21:03:57 GMT 20.662676 -89.041344 36,000 272 423 0
2020-01-14 21:03:48 GMT 20.662676 -89.041344 36,000 272 422 64
2020-01-14 21:03:38 GMT 20.661942 -89.018341 36,000 272 422 0
2020-01-14 21:03:26 GMT 20.661325 -88.996796 36,000 272 423 0
2020-01-14 21:03:16 GMT 20.660660 -88.974594 36,000 273 422 0
2020-01-14 21:03:06 GMT 20.659929 -88.952652 36,000 272 422 0
2020-01-14 21:02:54 GMT 20.659149 -88.928833 36,000 272 423 0
2020-01-14 21:02:45 GMT 20.658508 -88.908379 35,975 272 422 192
2020-01-14 21:02:34 GMT 20.657776 -88.885574 35,875 273 421 896
2020-01-14 21:02:25 GMT 20.657227 -88.868362 35,700 273 421 1216
2020-01-14 21:02:22 GMT 20.657043 -88.863159 35,675 273 422 1216
2020-01-14 21:02:12 GMT 20.656311 -88.840698 35,425 273 424 1536
2020-01-14 21:02:02 GMT 20.655600 -88.819221 35,125 273 427 1856
2020-01-14 21:01:51 GMT 20.654902 -88.797050 34,800 272 432 1664
2020-01-14 21:01:41 GMT 20.654203 -88.774475 34,550 272 434 1408
2020-01-14 21:01:32 GMT 20.653692 -88.758446 34,325 272 436 1792
2020-01-14 21:01:29 GMT 20.653519 -88.751923 34,300 272 436 1920
2020-01-14 21:01:22 GMT 20.653040 -88.736725 34,000 272 440 2048
2020-01-14 21:01:18 GMT 20.652761 -88.728287 33,875 272 441 2048
2020-01-14 21:01:12 GMT 20.652328 -88.714012 33,650 273 444 2112
2020-01-14 21:01:09 GMT 20.652061 -88.705811 33,500 273 445 2112
2020-01-14 21:01:01 GMT 20.651550 -88.690681 33,250 273 448 2112
2020-01-14 21:00:57 GMT 20.651230 -88.680809 33,125 273 450 1920
2020-01-14 21:00:48 GMT 20.650497 -88.658592 32,825 273 452 1536
2020-01-14 21:00:40 GMT 20.650040 -88.643875 32,650 273 453 1408
2020-01-14 21:00:36 GMT 20.649595 -88.631256 32,550 273 453 1216
2020-01-14 21:00:30 GMT 20.649307 -88.621559 32,475 273 453 1152
2020-01-14 21:00:25 GMT 20.648943 -88.610275 32,400 273 453 1088
2020-01-14 21:00:20 GMT 20.648529 -88.598999 32,300 273 452 896
2020-01-14 21:00:16 GMT 20.648163 -88.587181 32,225 273 451 832
2020-01-14 21:00:09 GMT 20.647734 -88.574623 32,125 273 450 832
2020-01-14 21:00:05 GMT 20.647339 -88.563194 32,050 273 450 896
2020-01-14 20:59:57 GMT 20.646561 -88.540436 31,925 272 448 1024
2020-01-14 20:59:54 GMT 20.646561 -88.540436 31,900 272 448 1024
2020-01-14 20:59:48 GMT 20.646242 -88.527481 31,800 271 448 1152
2020-01-14 20:59:44 GMT 20.646105 -88.515999 31,700 270 448 1216
2020-01-14 20:59:35 GMT 20.646290 -88.498116 31,500 269 448 1472
2020-01-14 20:59:32 GMT 20.646561 -88.490311 31,425 268 449 1408
2020-01-14 20:59:26 GMT 20.647064 -88.478348 31,300 267 448 1216
2020-01-14 20:59:23 GMT 20.647888 -88.465988 31,200 266 448 1024
2020-01-14 20:59:17 GMT 20.648338 -88.460365 31,150 265 448 1024
2020-01-14 20:59:12 GMT 20.649643 -88.446480 31,050 264 448 1088
2020-01-14 20:59:04 GMT 20.651596 -88.429855 30,900 262 447 1088
2020-01-14 20:59:00 GMT 20.652557 -88.422974 30,875 262 448 1088
2020-01-14 20:58:57 GMT 20.653738 -88.415024 30,775 261 447 960
2020-01-14 20:58:51 GMT 20.656252 -88.400040 30,675 259 446 896
2020-01-14 20:58:43 GMT 20.659149 -88.385056 30,550 258 445 1088
2020-01-14 20:58:40 GMT 20.660908 -88.376770 30,500 257 446 1152
2020-01-14 20:58:32 GMT 20.664213 -88.362289 30,350 256 445 1152
2020-01-14 20:58:28 GMT 20.666307 -88.353798 30,275 256 445 1216
2020-01-14 20:58:22 GMT 20.669632 -88.340080 30,125 256 444 1344
2020-01-14 20:58:19 GMT 20.671692 -88.331596 30,050 256 444 1408
2020-01-14 20:58:11 GMT 20.675079 -88.317818 29,900 256 443 1344
2020-01-14 20:58:08 GMT 20.677340 -88.308601 29,800 256 443 1408
2020-01-14 20:58:01 GMT 20.680527 -88.295601 29,650 256 443 1472
2020-01-14 20:57:57 GMT 20.682648 -88.286835 29,550 256 443 1408
2020-01-14 20:57:51 GMT 20.685791 -88.274071 29,400 256 442 1280
2020-01-14 20:57:47 GMT 20.688232 -88.264061 29,300 256 441 1152
2020-01-14 20:57:39 GMT 20.691540 -88.250580 29,200 256 440 1152
2020-01-14 20:57:36 GMT 20.693619 -88.242088 29,125 256 439 1152
2020-01-14 20:57:29 GMT 20.696869 -88.228897 28,975 256 438 1216
2020-01-14 20:57:24 GMT 20.699360 -88.218765 28,925 256 437 1216
2020-01-14 20:57:19 GMT 20.702271 -88.206970 28,775 256 436 1280
2020-01-14 20:57:15 GMT 20.704760 -88.196693 28,650 256 435 1344
2020-01-14 20:57:08 GMT 20.707554 -88.185310 28,525 256 433 1408
2020-01-14 20:57:04 GMT 20.710052 -88.175041 28,425 256 432 1344
2020-01-14 20:56:53 GMT 20.715408 -88.153168 28,175 256 431 1536
2020-01-14 20:56:43 GMT 20.720764 -88.131340 27,900 256 430 1536
2020-01-14 20:56:31 GMT 20.726166 -88.109123 27,625 256 429 1408
2020-01-14 20:56:23 GMT 20.730503 -88.091423 27,425 256 428 1344
2020-01-14 20:56:20 GMT 20.731573 -88.086929 27,375 256 427 1344
2020-01-14 20:56:11 GMT 20.736694 -88.065819 27,100 256 426 1792
2020-01-14 20:55:59 GMT 20.741913 -88.044434 26,800 256 426 1728
2020-01-14 20:55:50 GMT 20.747309 -88.022362 26,500 256 425 1664
2020-01-14 20:55:39 GMT 20.752569 -88.000587 26,200 256 424 1536
2020-01-14 20:55:33 GMT 20.754913 -87.990974 26,100 256 423 1472
2020-01-14 20:55:28 GMT 20.757660 -87.979645 25,950 256 422 1472
2020-01-14 20:55:18 GMT 20.762951 -87.957741 25,700 256 420 1472
2020-01-14 20:55:07 GMT 20.768280 -87.935799 25,450 256 418 1280
2020-01-14 20:54:58 GMT 20.772171 -87.919609 25,275 256 416 1088
2020-01-14 20:54:55 GMT 20.773361 -87.914856 25,250 256 414 1088
2020-01-14 20:54:46 GMT 20.778351 -87.894058 25,000 256 413 1536
2020-01-14 20:54:35 GMT 20.786545 -87.860115 24,450 256 413 1920
2020-01-14 20:54:23 GMT 20.793768 -87.830399 24,150 256 413 1664
2020-01-14 20:54:14 GMT 20.798813 -87.809799 23,825 256 412 1344
2020-01-14 20:54:03 GMT 20.798813 -87.809799 23,800 256 411 1344
2020-01-14 20:53:52 GMT 20.803730 -87.789299 23,550 257 408 1472
2020-01-14 20:53:49 GMT 20.805038 -87.783310 23,475 258 407 1536
2020-01-14 20:53:42 GMT 20.808105 -87.767761 23,250 260 406 1664
2020-01-14 20:53:39 GMT 20.808746 -87.764236 23,200 260 405 1664
2020-01-14 20:53:29 GMT 20.811951 -87.743927 22,925 262 403 1728
2020-01-14 20:53:21 GMT 20.814529 -87.726532 22,650 262 402 1920
2020-01-14 20:53:10 GMT 20.817696 -87.705307 22,275 262 403 2176
2020-01-14 20:52:57 GMT 20.821234 -87.681633 21,825 262 405 2304
2020-01-14 20:52:49 GMT 20.825005 -87.656067 21,400 262 406 1856
2020-01-14 20:52:38 GMT 20.827103 -87.641861 21,225 262 405 1600
2020-01-14 20:52:35 GMT 20.827744 -87.637497 21,150 262 405 1792
2020-01-14 20:52:26 GMT 20.830357 -87.620010 20,850 262 405 1920
2020-01-14 20:52:17 GMT 20.833244 -87.600433 20,550 262 403 1472
2020-01-14 20:52:05 GMT 20.836502 -87.578461 20,275 262 399 1600
2020-01-14 20:51:54 GMT 20.839527 -87.558037 19,975 262 396 1792
2020-01-14 20:51:44 GMT 20.842529 -87.537643 19,650 262 394 1920
2020-01-14 20:51:33 GMT 20.845459 -87.517876 19,275 261 394 2496
2020-01-14 20:51:23 GMT 20.848480 -87.497475 18,825 262 394 2304
2020-01-14 20:51:13 GMT 20.851593 -87.476433 18,400 262 394 2368
2020-01-14 20:51:01 GMT 20.854523 -87.456421 18,025 262 393 2176
2020-01-14 20:50:52 GMT 20.857590 -87.435524 17,625 262 391 2112
2020-01-14 20:50:41 GMT 20.860571 -87.415367 17,250 262 390 2112
2020-01-14 20:50:30 GMT 20.863541 -87.395454 16,875 262 388 2176
2020-01-14 20:50:19 GMT 20.866608 -87.374413 16,525 262 385 1536
2020-01-14 20:50:09 GMT 20.869492 -87.354797 16,250 262 379 1664
2020-01-14 20:49:57 GMT 20.872330 -87.335373 15,875 262 377 2624
2020-01-14 20:49:48 GMT 20.875187 -87.315742 15,450 262 375 2048
2020-01-14 20:49:37 GMT 20.878143 -87.295746 15,025 262 373 2624
2020-01-14 20:49:25 GMT 20.880936 -87.276764 14,700 262 371 1856
2020-01-14 20:49:16 GMT 20.883728 -87.257835 14,250 262 367 2496
2020-01-14 20:49:05 GMT 20.886732 -87.237335 13,800 262 365 2368
2020-01-14 20:48:54 GMT 20.889294 -87.219856 13,350 262 364 2688
2020-01-14 20:48:44 GMT 20.892059 -87.200401 12,950 262 361 1984
2020-01-14 20:48:32 GMT 20.894787 -87.181755 12,650 262 356 2112
2020-01-14 20:48:22 GMT 20.897346 -87.163780 12,200 262 352 2688
2020-01-14 20:48:12 GMT 20.899979 -87.145515 11,725 262 349 2496
2020-01-14 20:48:01 GMT 20.902559 -87.127579 11,300 262 345 2304
2020-01-14 20:47:51 GMT 20.905308 -87.109100 10,875 262 340 2304
2020-01-14 20:47:40 GMT 20.907852 -87.091759 10,575 262 329 1280
2020-01-14 20:47:31 GMT 20.909777 -87.078735 10,425 262 317 896
2020-01-14 20:47:19 GMT 20.912663 -87.058411 10,075 262 306 2496
2020-01-14 20:47:08 GMT 20.914902 -87.042961 9,600 262 304 3008
2020-01-14 20:46:57 GMT 20.917131 -87.027298 9,075 262 302 2944
2020-01-14 20:46:47 GMT 20.919479 -87.011276 8,550 262 301 2752
2020-01-14 20:46:38 GMT 20.921041 -87.000336 8,225 262 298 2752
2020-01-14 20:46:35 GMT 20.921879 -86.994637 8,025 262 297 2880
2020-01-14 20:46:28 GMT 20.923277 -86.985054 7,700 262 296 3072
2020-01-14 20:46:24 GMT 20.924011 -86.979889 7,525 262 295 3136
2020-01-14 20:46:18 GMT 20.926208 -86.964882 7,000 262 294 2816
2020-01-14 20:46:07 GMT 20.927719 -86.954430 6,650 262 291 2880
2020-01-14 20:46:04 GMT 20.928452 -86.949577 6,475 262 290 2880
2020-01-14 20:45:53 GMT 20.930490 -86.934814 5,950 262 286 3200
2020-01-14 20:45:43 GMT 20.932526 -86.919907 5,375 262 285 3328
2020-01-14 20:45:32 GMT 20.935053 -86.903999 4,725 256 283 3328
2020-01-14 20:45:25 GMT 20.937607 -86.895821 4,400 243 279 3264
2020-01-14 20:45:20 GMT 20.940222 -86.890518 4,150 236 277 3328
2020-01-14 20:45:08 GMT 20.951065 -86.877380 3,425 221 272 3328
2020-01-14 20:44:59 GMT 20.960266 -86.870415 2,950 214 268 3264
2020-01-14 20:44:47 GMT 20.971970 -86.861908 2,400 216 261 2304
2020-01-14 20:44:39 GMT 20.980721 -86.855362 2,100 214 249 1984
2020-01-14 20:44:26 GMT 20.992731 -86.847771 1,700 201 233 1856
2020-01-14 20:44:16 GMT 21.002043 -86.846024 1,450 177 216 1408
2020-01-14 20:44:07 GMT 21.011679 -86.848068 1,225 155 194 1216

Making use of Plane Finder data

You are free to use the raw flight data, aircraft information and images provided in this report for your own purposes provided the data is correctly attributed to Plane Finder. We ask that you please credit Plane Finder and link to planefinder.net in close proximity to the content.

Optionally one of the following logos (no smaller then 150x24px) can be used and must link to planefinder.net

Embedding the Plane Finder map

You are welcome to embed the Plane Finder playback map on your website to offer visitors a more interactive experience. We suggest using the following HTML code:

<iframe src="//planefinder.net/data/report/VB1031-XA-VIF-7700-squawk-2020-01-14/map" width="800" height="600" seamless="seamless"></iframe>

Where our data comes from

Plane Finder has a global network of data feeds and antenna radars that receive data broadcast directly from aircraft. The primary technologies used are ADS-B and MLAT. We also show feeds from the FAA and a FLARM glider feed.

Click here to find out more about the Plane Finder network.

How we collect our data